createdAt,value
2019-01-17T00:01:57.925Z,98.20
2019-01-17T00:04:28.382Z,98.30
2019-01-17T00:07:01.174Z,98.50
2019-01-17T00:09:37.028Z,98.60
2019-01-17T00:12:07.276Z,98.60
2019-01-17T00:14:49.549Z,98.70
2019-01-17T00:17:29.075Z,98.80
2019-01-17T00:20:08.280Z,98.80
2019-01-17T00:22:38.629Z,98.70
2019-01-17T00:25:26.323Z,98.70
2019-01-17T00:27:59.771Z,98.80
2019-01-17T00:30:38.895Z,99.00
2019-01-17T00:33:16.183Z,99.00
2019-01-17T00:35:52.378Z,99.00
2019-01-17T00:38:25.631Z,98.90
2019-01-17T00:41:04.838Z,99.00
2019-01-17T00:43:45.393Z,99.00
2019-01-17T00:46:27.593Z,99.00
2019-01-17T00:49:03.760Z,99.00
2019-01-17T00:51:50.149Z,99.00
2019-01-17T00:54:20.291Z,99.20
2019-01-17T00:56:59.238Z,99.10
2019-01-17T00:59:29.370Z,99.10
2019-01-17T01:02:05.495Z,99.20
2019-01-17T01:04:41.808Z,99.10
2019-01-17T01:07:24.140Z,98.90
2019-01-17T01:09:54.431Z,99.00
2019-01-17T01:12:27.571Z,99.00
2019-01-17T01:15:12.649Z,98.90
2019-01-17T01:17:42.938Z,98.90
2019-01-17T01:20:29.581Z,99.20
2019-01-17T01:22:59.842Z,98.90
2019-01-17T01:25:42.205Z,98.90
2019-01-17T01:28:18.115Z,98.80
2019-01-17T01:31:04.475Z,98.70
2019-01-17T01:33:40.793Z,98.90
2019-01-17T01:36:10.995Z,98.50
2019-01-17T01:38:57.495Z,98.50
2019-01-17T01:41:28.013Z,98.60
2019-01-17T01:44:14.845Z,98.60
2019-01-17T01:46:45.263Z,98.90
2019-01-17T01:49:31.251Z,98.60
2019-01-17T01:52:10.620Z,98.50
2019-01-17T01:54:39.257Z,98.60
2019-01-17T01:57:09.619Z,98.60
2019-01-17T01:59:38.261Z,98.50
2019-01-17T02:02:06.835Z,98.50
2019-01-17T02:04:35.483Z,98.60
2019-01-17T02:07:04.073Z,98.50
2019-01-17T02:09:32.689Z,98.50
2019-01-17T02:12:01.456Z,98.50
2019-01-17T02:14:31.003Z,98.60
2019-01-17T02:16:59.832Z,98.60
2019-01-17T02:19:31.127Z,98.70
2019-01-17T02:21:59.813Z,98.70
2019-01-17T02:24:29.487Z,98.60
2019-01-17T02:26:58.029Z,98.70
2019-01-17T02:29:28.668Z,98.70
2019-01-17T02:31:57.179Z,98.80
2019-01-17T02:34:25.763Z,98.70
2019-01-17T02:36:54.383Z,98.70
2019-01-17T02:39:22.837Z,98.60
2019-01-17T02:41:51.493Z,98.80
2019-01-17T02:44:20.136Z,98.60
2019-01-17T02:46:48.754Z,98.60
2019-01-17T02:49:18.505Z,98.60
2019-01-17T02:51:47.002Z,98.60
2019-01-17T02:54:15.543Z,98.40
2019-01-17T02:56:44.161Z,98.40
2019-01-17T02:59:12.654Z,98.50
2019-01-17T03:01:41.236Z,98.30
2019-01-17T03:04:09.835Z,98.30
2019-01-17T03:06:38.555Z,98.20
2019-01-17T03:09:08.102Z,98.20
2019-01-17T03:11:36.623Z,98.20
2019-01-17T03:14:05.162Z,98.10
2019-01-17T03:16:33.645Z,98.10
2019-01-17T03:19:02.300Z,98.10
2019-01-17T03:21:30.890Z,98.10
2019-01-17T03:24:01.054Z,98.00
2019-01-17T03:26:32.147Z,98.20
2019-01-17T03:29:00.781Z,98.30
2019-01-17T03:31:29.195Z,98.30
2019-01-17T03:33:57.766Z,98.30
2019-01-17T03:36:26.438Z,98.20
2019-01-17T03:38:55.136Z,98.20
2019-01-17T03:41:23.824Z,98.30
2019-01-17T03:43:52.753Z,98.20
2019-01-17T03:46:21.354Z,98.10
2019-01-17T03:48:53.112Z,98.10
2019-01-17T03:51:24.142Z,98.20
2019-01-17T03:53:52.904Z,98.10
2019-01-17T03:56:22.061Z,98.00
2019-01-17T03:58:51.050Z,98.00
2019-01-17T04:01:19.570Z,97.90
2019-01-17T04:03:48.049Z,98.10
2019-01-17T04:06:16.636Z,97.90
2019-01-17T04:08:45.191Z,97.80
2019-01-17T04:11:13.716Z,97.80
2019-01-17T04:13:42.242Z,97.70
2019-01-17T04:16:10.757Z,97.80
2019-01-17T04:18:39.466Z,97.70
2019-01-17T04:21:08.251Z,97.50
2019-01-17T04:23:36.925Z,97.50
2019-01-17T04:26:05.483Z,97.40
2019-01-17T04:28:34.007Z,97.40
2019-01-17T04:31:02.620Z,97.40
2019-01-17T04:33:31.405Z,97.20
2019-01-17T04:36:00.069Z,97.10
2019-01-17T04:38:28.735Z,97.10
2019-01-17T04:40:57.344Z,97.10
2019-01-17T04:43:25.849Z,97.20
2019-01-17T04:45:54.384Z,97.10
2019-01-17T04:48:22.863Z,97.20
2019-01-17T04:50:51.354Z,97.00
2019-01-17T04:53:20.017Z,97.00
2019-01-17T04:55:48.628Z,96.90
2019-01-17T04:58:17.061Z,96.90
2019-01-17T05:00:45.589Z,96.80
2019-01-17T05:03:14.182Z,96.70
2019-01-17T05:05:42.960Z,96.70
2019-01-17T05:08:11.524Z,96.60
2019-01-17T05:10:40.005Z,96.50
2019-01-17T05:13:08.560Z,96.40
2019-01-17T05:15:37.094Z,96.40
2019-01-17T05:18:05.636Z,96.60
2019-01-17T05:20:34.263Z,96.50
2019-01-17T05:23:02.874Z,96.40
2019-01-17T05:25:31.543Z,96.30
2019-01-17T05:28:00.274Z,96.20
2019-01-17T05:30:39.410Z,96.10
2019-01-17T05:33:10.904Z,96.00
2019-01-17T05:35:41.149Z,95.90
2019-01-17T05:38:09.933Z,95.80
2019-01-17T05:40:38.759Z,95.70
2019-01-17T05:43:09.356Z,95.70
2019-01-17T05:45:38.052Z,95.70
2019-01-17T05:48:06.565Z,95.60
2019-01-17T05:50:35.120Z,95.50
2019-01-17T05:53:04.153Z,95.50
2019-01-17T05:55:34.409Z,95.40
2019-01-17T05:58:03.043Z,95.50
2019-01-17T06:00:34.265Z,95.30
2019-01-17T06:03:22.406Z,95.30
2019-01-17T06:05:54.550Z,95.40
2019-01-17T06:08:29.826Z,95.10
2019-01-17T06:11:02.314Z,95.10
2019-01-17T06:13:34.138Z,95.30
2019-01-17T06:16:05.288Z,95.20
2019-01-17T06:18:52.300Z,95.10
2019-01-17T06:21:30.734Z,95.10
2019-01-17T06:24:03.794Z,95.00
2019-01-17T06:26:34.126Z,94.80
2019-01-17T06:29:10.180Z,94.90
2019-01-17T06:31:46.368Z,94.80
2019-01-17T06:34:22.950Z,94.80
2019-01-17T06:36:51.438Z,94.90
2019-01-17T06:39:23.370Z,94.60
2019-01-17T06:41:52.971Z,94.80
2019-01-17T06:44:24.362Z,94.40
2019-01-17T06:46:56.651Z,94.50
2019-01-17T06:53:09.134Z,94.40
2019-01-17T06:55:56.036Z,94.40
2019-01-17T06:58:25.412Z,94.50
2019-01-17T07:00:55.187Z,94.60
2019-01-17T07:03:23.799Z,94.50
2019-01-17T07:06:12.806Z,94.30
2019-01-17T07:08:56.867Z,94.30
2019-01-17T07:15:07.844Z,94.00
2019-01-17T07:20:49.213Z,94.10
2019-01-17T07:26:54.255Z,93.90
2019-01-17T07:29:27.608Z,94.10
2019-01-17T07:32:06.845Z,93.90
2019-01-17T07:34:46.413Z,93.90
2019-01-17T07:37:22.650Z,93.30
2019-01-17T07:39:59.905Z,93.20
2019-01-17T07:42:43.688Z,93.10
2019-01-17T07:45:30.949Z,93.20
2019-01-17T07:48:04.354Z,93.10
2019-01-17T07:50:35.075Z,92.80
2019-01-17T07:53:15.877Z,92.80
2019-01-17T07:55:59.796Z,92.70
2019-01-17T08:00:09.345Z,92.60
2019-01-17T08:01:55.588Z,92.10
2019-01-17T08:04:37.258Z,92.10
2019-01-17T08:07:33.675Z,91.80
2019-01-17T08:10:07.887Z,91.60
2019-01-17T08:12:36.734Z,91.40
2019-01-17T08:15:26.056Z,91.70
2019-01-17T08:18:00.451Z,91.20
2019-01-17T08:20:46.012Z,91.20
2019-01-17T08:23:21.047Z,90.80
2019-01-17T08:26:00.977Z,90.70
2019-01-17T08:28:33.822Z,90.20
2019-01-17T08:31:08.546Z,90.20
2019-01-17T08:33:40.979Z,90.00
2019-01-17T08:36:18.893Z,89.30
2019-01-17T08:38:52.499Z,89.80
2019-01-17T08:41:39.845Z,89.40
2019-01-17T08:44:24.511Z,88.90
2019-01-17T08:47:03.306Z,88.30
2019-01-17T08:49:35.147Z,87.50
2019-01-17T08:55:19.567Z,87.40
2019-01-17T08:57:59.649Z,86.70
2019-01-17T09:00:32.362Z,87.40
2019-01-17T09:03:05.382Z,87.40
2019-01-17T09:05:34.229Z,86.90
2019-01-17T09:08:07.337Z,86.80
2019-01-17T09:10:41.811Z,87.40
2019-01-17T09:13:13.234Z,87.10
2019-01-17T09:15:48.763Z,86.30
2019-01-17T09:18:15.702Z,85.60
2019-01-17T09:20:47.462Z,85.60
2019-01-17T09:23:16.335Z,86.30
2019-01-17T09:25:53.048Z,85.90
2019-01-17T09:28:23.812Z,86.10
2019-01-17T09:31:06.595Z,86.00
2019-01-17T09:33:34.285Z,85.60
2019-01-17T09:36:11.579Z,85.50
2019-01-17T09:38:49.165Z,85.40
2019-01-17T09:41:25.927Z,84.60
2019-01-17T09:44:07.825Z,84.00
2019-01-17T09:46:44.631Z,83.70
2019-01-17T09:49:16.958Z,83.10
2019-01-17T09:51:54.289Z,82.90
2019-01-17T09:54:27.251Z,82.30
2019-01-17T09:57:04.438Z,82.80
2019-01-17T09:59:41.610Z,81.90
2019-01-17T10:02:20.481Z,82.40
2019-01-17T10:04:54.925Z,82.60
2019-01-17T10:07:23.464Z,83.30
2019-01-17T10:09:58.804Z,83.80
2019-01-17T10:12:30.888Z,83.50
2019-01-17T10:15:03.959Z,84.00
2019-01-17T10:17:34.169Z,83.80
2019-01-17T10:20:16.473Z,83.50
2019-01-17T10:22:59.293Z,82.90
2019-01-17T10:25:36.508Z,82.90
2019-01-17T10:28:38.069Z,82.20
2019-01-17T10:31:35.177Z,82.90
2019-01-17T10:37:31.147Z,84.00
2019-01-17T10:40:36.982Z,83.80
2019-01-17T10:47:12.863Z,84.40
2019-01-17T10:53:34.498Z,84.60
2019-01-17T11:00:02.317Z,85.10
2019-01-17T11:06:47.826Z,85.80
2019-01-17T11:09:49.092Z,86.00
2019-01-17T11:12:38.965Z,86.30
2019-01-17T11:19:26.420Z,86.40
2019-01-17T11:22:21.766Z,86.60
2019-01-17T11:25:03.709Z,87.00
2019-01-17T11:28:04.908Z,87.00
2019-01-17T11:31:04.061Z,87.60
2019-01-17T11:33:39.386Z,87.90
2019-01-17T11:36:19.725Z,87.90
2019-01-17T11:39:26.789Z,88.30
2019-01-17T11:42:16.279Z,88.40
2019-01-17T11:45:06.491Z,88.80
2019-01-17T11:47:51.995Z,88.60
2019-01-17T11:50:53.983Z,88.10
2019-01-17T11:53:37.962Z,88.60
2019-01-17T11:56:40.928Z,89.30
2019-01-17T11:59:30.380Z,89.70
2019-01-17T12:02:14.197Z,90.00
2019-01-17T12:05:12.170Z,90.00
2019-01-17T12:07:54.878Z,90.30
2019-01-17T12:10:19.197Z,90.40
2019-01-17T12:12:51.034Z,90.40
2019-01-17T12:15:23.501Z,90.20
2019-01-17T12:17:56.217Z,90.40
2019-01-17T12:20:41.526Z,90.40
2019-01-17T12:23:28.088Z,90.60
2019-01-17T12:29:21.124Z,90.90
2019-01-17T12:32:00.107Z,91.10
2019-01-17T12:34:48.196Z,91.10
2019-01-17T12:38:03.624Z,91.10
2019-01-17T12:43:14.542Z,90.90
2019-01-17T12:46:00.007Z,90.80
2019-01-17T12:48:30.209Z,91.10
2019-01-17T12:51:18.754Z,91.20
2019-01-17T12:53:49.281Z,91.00
2019-01-17T12:56:25.549Z,91.10
2019-01-17T12:59:15.114Z,91.70
2019-01-17T13:01:52.934Z,91.20
2019-01-17T13:04:33.211Z,91.20
2019-01-17T13:07:01.015Z,91.40
2019-01-17T13:09:40.759Z,91.10
2019-01-17T13:12:31.938Z,91.10
2019-01-17T13:15:05.564Z,91.30
2019-01-17T13:17:46.922Z,91.20
2019-01-17T13:20:18.602Z,91.20
2019-01-17T13:22:50.051Z,91.20
2019-01-17T13:25:43.978Z,91.10
2019-01-17T13:28:15.497Z,91.10
2019-01-17T13:30:50.053Z,91.10
2019-01-17T13:33:28.553Z,91.10
2019-01-17T13:36:00.730Z,91.00
2019-01-17T13:38:42.864Z,91.10
2019-01-17T13:44:18.450Z,90.90
2019-01-17T13:46:54.250Z,91.20
2019-01-17T13:49:34.187Z,91.20
2019-01-17T13:52:09.228Z,91.20
2019-01-17T13:54:41.946Z,91.10
2019-01-17T13:57:25.570Z,91.00
2019-01-17T13:59:58.212Z,91.00
2019-01-17T14:02:34.419Z,91.10
2019-01-17T14:05:24.719Z,91.30
2019-01-17T14:07:56.572Z,91.20
2019-01-17T14:10:29.489Z,91.30
2019-01-17T14:13:01.124Z,91.30
2019-01-17T14:15:30.930Z,91.20
2019-01-17T14:18:12.084Z,91.20
2019-01-17T14:20:48.122Z,91.30
2019-01-17T14:23:23.858Z,91.30
2019-01-17T14:25:54.348Z,91.30
2019-01-17T14:28:31.943Z,91.50
2019-01-17T14:31:14.168Z,91.60
2019-01-17T14:37:04.290Z,91.50
2019-01-17T14:40:15.951Z,91.30
2019-01-17T14:54:54.784Z,91.30
2019-01-17T15:06:53.246Z,91.50
2019-01-17T15:09:37.816Z,91.40
2019-01-17T15:12:14.471Z,91.30
2019-01-17T15:17:44.049Z,91.30
2019-01-17T15:18:02.186Z,91.40
2019-01-17T15:20:43.730Z,91.10
2019-01-17T15:23:14.036Z,91.10
2019-01-17T15:31:31.414Z,91.20
2019-01-17T15:34:15.552Z,91.20
2019-01-17T15:37:10.829Z,91.30
2019-01-17T15:39:45.196Z,91.30
2019-01-17T15:42:27.220Z,91.20
2019-01-17T15:45:14.116Z,91.30
2019-01-17T15:51:23.179Z,91.30
2019-01-17T15:53:52.564Z,91.30
2019-01-17T15:56:18.936Z,91.30
2019-01-17T16:00:14.362Z,91.30
2019-01-17T16:04:42.854Z,91.20
2019-01-17T16:07:12.809Z,91.20
2019-01-17T16:09:41.559Z,91.30
2019-01-17T16:12:10.231Z,91.40
2019-01-17T16:14:38.962Z,91.30
2019-01-17T16:17:12.845Z,91.30
2019-01-17T16:19:41.694Z,91.20
2019-01-17T16:22:17.008Z,91.10
2019-01-17T16:24:48.274Z,91.10
2019-01-17T16:27:20.888Z,91.10
2019-01-17T16:29:57.934Z,91.10
2019-01-17T16:32:27.152Z,91.20
2019-01-17T16:35:04.616Z,91.10
2019-01-17T16:37:39.686Z,91.10
2019-01-17T16:40:18.551Z,91.20
2019-01-17T16:42:42.544Z,91.20
2019-01-17T16:45:19.147Z,91.30
2019-01-17T16:47:47.986Z,91.30
2019-01-17T16:50:19.970Z,91.30
2019-01-17T16:52:49.904Z,91.40
2019-01-17T16:55:20.386Z,91.30
2019-01-17T16:57:52.298Z,91.40
2019-01-17T17:00:25.834Z,91.50
2019-01-17T17:02:54.558Z,91.70
2019-01-17T17:05:30.429Z,91.30
2019-01-17T17:08:02.289Z,91.40
2019-01-17T17:10:30.929Z,91.40
2019-01-17T17:15:58.667Z,91.30
2019-01-17T17:18:37.985Z,91.30
2019-01-17T17:21:10.827Z,91.20
2019-01-17T17:23:54.735Z,91.20
2019-01-17T17:26:33.743Z,91.20
2019-01-17T17:28:58.438Z,91.10
2019-01-17T17:31:36.220Z,91.10
2019-01-17T17:37:05.653Z,91.00
2019-01-17T17:39:36.005Z,90.90
2019-01-17T17:42:13.189Z,90.90
2019-01-17T17:44:49.626Z,90.90
2019-01-17T17:47:34.183Z,90.90
2019-01-17T17:50:04.535Z,91.00
2019-01-17T17:52:35.751Z,90.90
2019-01-17T17:55:11.137Z,90.90
2019-01-17T17:57:54.900Z,90.80
2019-01-17T18:00:32.900Z,90.90
2019-01-17T18:03:18.549Z,90.70
2019-01-17T18:06:36.327Z,90.60
2019-01-17T18:12:57.851Z,90.30
2019-01-17T18:15:19.354Z,90.50
2019-01-17T18:18:23.023Z,90.50
2019-01-17T18:20:38.426Z,90.40
2019-01-17T18:23:12.409Z,90.50
2019-01-17T18:25:45.422Z,90.50
2019-01-17T18:28:34.414Z,90.60
2019-01-17T18:31:20.585Z,90.50
2019-01-17T18:34:02.627Z,90.50
2019-01-17T18:36:43.086Z,90.40
2019-01-17T18:39:15.523Z,90.40
2019-01-17T18:41:54.111Z,90.30
2019-01-17T18:44:28.383Z,90.30
2019-01-17T18:47:01.811Z,90.40
2019-01-17T18:49:30.351Z,90.30
2019-01-17T18:52:03.306Z,90.40
2019-01-17T18:54:33.154Z,90.30
2019-01-17T18:57:07.254Z,90.20
2019-01-17T18:59:36.944Z,90.20
2019-01-17T19:02:08.946Z,90.00
2019-01-17T19:04:37.615Z,89.90
2019-01-17T19:07:08.713Z,90.00
2019-01-17T19:10:02.888Z,89.90
2019-01-17T19:12:16.486Z,90.00
2019-01-17T19:14:51.106Z,90.00
2019-01-17T19:17:26.827Z,89.90
2019-01-17T19:19:59.871Z,90.00
2019-01-17T19:22:36.125Z,90.00
2019-01-17T19:25:46.779Z,89.90
2019-01-17T19:28:26.947Z,90.00
2019-01-17T19:30:57.616Z,90.00
2019-01-17T19:33:35.592Z,90.00
2019-01-17T19:36:09.246Z,90.00
2019-01-17T19:38:37.971Z,90.10
2019-01-17T19:41:09.425Z,90.30
2019-01-17T19:43:37.942Z,90.00
2019-01-17T19:46:08.263Z,90.00
2019-01-17T19:48:37.413Z,89.30
2019-01-17T19:51:08.908Z,89.40
2019-01-17T19:53:39.162Z,89.60
2019-01-17T19:56:14.544Z,89.60
2019-01-17T20:02:16.814Z,89.60
2019-01-17T20:05:06.537Z,89.50
2019-01-17T20:07:34.111Z,89.10
2019-01-17T20:10:07.393Z,89.40
2019-01-17T20:12:34.572Z,89.50
2019-01-17T20:15:09.335Z,89.70
2019-01-17T20:17:37.949Z,90.40
2019-01-17T20:20:11.143Z,91.00
2019-01-17T20:22:40.924Z,91.40
2019-01-17T20:25:10.837Z,91.80
2019-01-17T20:27:39.558Z,91.90
2019-01-17T20:30:11.585Z,92.00
2019-01-17T20:32:40.237Z,92.00
2019-01-17T20:35:11.309Z,91.80
2019-01-17T20:37:46.658Z,91.90
2019-01-17T20:40:18.468Z,92.10
2019-01-17T20:42:47.621Z,92.10
2019-01-17T20:45:16.452Z,92.20
2019-01-17T20:47:46.259Z,92.10
2019-01-17T20:50:18.871Z,92.10
2019-01-17T20:52:47.484Z,92.00
2019-01-17T20:55:18.119Z,92.30
2019-01-17T20:57:48.252Z,92.40
2019-01-17T21:00:25.436Z,92.20
2019-01-17T21:02:55.186Z,92.20
2019-01-17T21:05:27.256Z,92.30
2019-01-17T21:07:58.773Z,92.50
2019-01-17T21:10:28.430Z,92.40
2019-01-17T21:12:58.635Z,92.40
2019-01-17T21:15:27.117Z,92.50
2019-01-17T21:17:57.275Z,92.40
2019-01-17T21:20:25.959Z,92.50
2019-01-17T21:22:54.515Z,92.40
2019-01-17T21:25:23.550Z,92.20
2019-01-17T21:27:52.866Z,92.40
2019-01-17T21:30:25.064Z,92.10
2019-01-17T21:32:53.670Z,92.20
2019-01-17T21:35:31.397Z,92.20
2019-01-17T21:38:00.101Z,92.10
2019-01-17T21:40:30.464Z,92.10
2019-01-17T21:43:00.712Z,92.20
2019-01-17T21:45:32.899Z,92.20
2019-01-17T21:48:01.721Z,92.00
2019-01-17T21:50:35.292Z,91.80
2019-01-17T21:53:03.854Z,91.80
2019-01-17T21:55:32.481Z,91.80
2019-01-17T21:58:01.029Z,92.00
2019-01-17T22:00:30.274Z,92.20
2019-01-17T22:02:58.890Z,92.20
2019-01-17T22:05:27.438Z,92.10
2019-01-17T22:07:55.886Z,92.00
2019-01-17T22:10:24.480Z,92.00
2019-01-17T22:12:53.248Z,92.00
2019-01-17T22:15:24.334Z,92.30
2019-01-17T22:17:53.704Z,92.70
2019-01-17T22:20:25.214Z,92.90
2019-01-17T22:22:58.580Z,93.00
2019-01-17T22:25:28.743Z,92.90
2019-01-17T22:27:57.380Z,93.30
2019-01-17T22:30:33.121Z,94.00
2019-01-17T22:33:06.107Z,94.40
2019-01-17T22:35:35.124Z,94.50
2019-01-17T22:38:04.870Z,95.00
2019-01-17T22:40:35.854Z,94.90
2019-01-17T22:43:04.130Z,95.00
2019-01-17T22:45:36.064Z,95.50
2019-01-17T22:48:17.854Z,95.80
2019-01-17T22:50:46.613Z,96.00
2019-01-17T22:53:22.106Z,96.40
2019-01-17T22:55:50.882Z,96.80
2019-01-17T22:58:19.895Z,97.00
2019-01-17T23:00:56.292Z,97.40
2019-01-17T23:03:30.602Z,97.60
2019-01-17T23:06:02.654Z,97.90
2019-01-17T23:08:34.450Z,98.00
2019-01-17T23:11:03.357Z,98.10
2019-01-17T23:13:31.792Z,98.20
2019-01-17T23:16:00.324Z,98.30
2019-01-17T23:18:33.930Z,98.20
2019-01-17T23:21:03.334Z,98.30
2019-01-17T23:23:32.065Z,98.20
2019-01-17T23:26:00.630Z,98.30
2019-01-17T23:28:29.273Z,98.10
2019-01-17T23:30:57.839Z,98.10
2019-01-17T23:33:26.360Z,98.10
2019-01-17T23:35:55.000Z,98.20
2019-01-17T23:38:27.168Z,98.10
2019-01-17T23:40:55.822Z,98.00
2019-01-17T23:43:24.731Z,97.80
2019-01-17T23:45:56.125Z,97.60
2019-01-17T23:48:24.967Z,97.50
2019-01-17T23:50:53.678Z,97.40
2019-01-17T23:53:22.188Z,97.30
2019-01-17T23:55:50.678Z,97.30
2019-01-17T23:58:19.243Z,97.40
